Time;durP1;ratioP1;P1;durP2;ratioP2;P2;SDS_P1;SDS_P2;PMS_P1;PMS_P2;Temp;Humidity;BMP_temperature;BMP_pressure;BME280_temperature;BME280_humidity;BME280_pressure;Samples;Min_cycle;Max_cycle;Signal;HPM_P1;HPM_P2
2021/05/16 00:02:21;;;;;;;0.60;0.60;;;13.30;34.40;;;;;;10412830;28;20279;-69
2021/05/16 00:07:24;;;;;;;0.60;0.60;;;13.30;34.10;;;;;;10412983;28;20222;-69
2021/05/16 00:12:27;;;;;;;1.60;0.60;;;13.30;34.10;;;;;;10412958;28;20229;-68
2021/05/16 00:17:30;;;;;;;0.70;0.60;;;13.20;34.40;;;;;;10412635;28;20601;-69
2021/05/16 00:22:33;;;;;;;0.63;0.63;;;13.10;34.20;;;;;;10412608;28;20321;-68
2021/05/16 00:27:37;;;;;;;0.70;0.70;;;13.10;34.40;;;;;;10412432;28;20328;-69
2021/05/16 00:32:40;;;;;;;0.73;0.60;;;13.00;34.70;;;;;;10412165;28;20635;-69
2021/05/16 00:37:43;;;;;;;0.80;0.70;;;13.00;34.50;;;;;;10411948;28;20821;-69
2021/05/16 00:42:46;;;;;;;1.77;0.70;;;12.90;34.70;;;;;;10411816;28;20725;-67
2021/05/16 00:47:51;;;;;;;0.60;0.60;;;12.90;35.10;;;;;;10411590;28;20382;-69
2021/05/16 00:52:54;;;;;;;0.80;0.80;;;12.90;35.00;;;;;;10411336;28;20654;-68
2021/05/16 00:57:57;;;;;;;1.10;0.90;;;12.80;34.80;;;;;;10411225;28;20312;-69
2021/05/16 01:03:00;;;;;;;0.60;0.60;;;12.80;35.00;;;;;;10410683;28;20305;-69
2021/05/16 01:08:04;;;;;;;1.07;0.80;;;12.80;34.90;;;;;;10410525;28;20249;-69
2021/05/16 01:13:09;;;;;;;1.57;0.70;;;12.80;35.10;;;;;;10409803;28;20233;-70
2021/05/16 01:18:12;;;;;;;0.87;0.70;;;12.80;35.20;;;;;;10410126;28;20328;-69
2021/05/16 01:23:20;;;;;;;1.40;0.83;;;12.70;35.20;;;;;;10410067;28;20256;-69
2021/05/16 01:28:23;;;;;;;0.97;0.80;;;12.70;35.60;;;;;;10410199;28;20249;-68
2021/05/16 01:33:26;;;;;;;1.37;0.80;;;12.70;35.20;;;;;;10409790;28;20316;-69
2021/05/16 01:38:30;;;;;;;2.23;0.90;;;12.70;35.10;;;;;;10409666;28;20317;-69
2021/05/16 01:43:34;;;;;;;1.30;0.80;;;12.70;35.40;;;;;;10409447;28;20576;-69
2021/05/16 01:48:37;;;;;;;0.90;0.90;;;12.70;35.40;;;;;;10409000;28;20304;-69
2021/05/16 01:53:42;;;;;;;1.67;0.83;;;12.80;35.30;;;;;;10408929;28;20261;-69
2021/05/16 01:58:45;;;;;;;1.00;0.70;;;12.80;35.60;;;;;;10408273;28;20309;-69
2021/05/16 02:03:48;;;;;;;1.73;0.90;;;12.80;35.10;;;;;;10408447;28;20257;-68
2021/05/16 02:08:52;;;;;;;1.83;0.97;;;12.80;35.20;;;;;;10406731;28;20317;-69
2021/05/16 02:13:55;;;;;;;0.90;0.80;;;12.80;35.30;;;;;;10408108;28;20721;-69
2021/05/16 02:18:57;;;;;;;1.57;0.90;;;12.80;35.00;;;;;;10408348;28;20316;-69
2021/05/16 02:24:01;;;;;;;0.90;0.83;;;12.80;35.10;;;;;;10407887;28;20736;-69
2021/05/16 02:29:04;;;;;;;1.70;0.80;;;12.80;35.10;;;;;;10407485;28;20309;-69
2021/05/16 02:34:07;;;;;;;2.30;0.90;;;12.80;35.20;;;;;;10407807;28;20645;-69
2021/05/16 02:39:11;;;;;;;1.37;0.70;;;12.80;35.20;;;;;;10407700;28;20313;-68
2021/05/16 02:44:14;;;;;;;1.47;0.77;;;12.80;35.30;;;;;;10407307;28;20264;-69
2021/05/16 02:49:16;;;;;;;1.20;1.03;;;12.70;35.00;;;;;;10407457;28;20252;-69
2021/05/16 02:54:20;;;;;;;1.67;1.13;;;12.70;35.00;;;;;;10407189;28;20755;-69
2021/05/16 02:59:25;;;;;;;1.80;1.00;;;12.70;35.20;;;;;;10407198;28;20314;-69
2021/05/16 03:04:28;;;;;;;2.90;1.20;;;12.70;35.20;;;;;;10407099;28;20283;-69
2021/05/16 03:09:34;;;;;;;1.10;0.90;;;12.70;35.00;;;;;;10407331;28;20245;-69
2021/05/16 03:14:37;;;;;;;0.80;0.80;;;12.60;35.10;;;;;;10407018;28;20791;-69
2021/05/16 03:19:40;;;;;;;1.73;0.90;;;12.60;35.10;;;;;;10406591;28;20240;-69
2021/05/16 03:24:43;;;;;;;0.97;0.70;;;12.60;35.00;;;;;;10406873;28;20313;-69
2021/05/16 03:29:46;;;;;;;1.00;0.70;;;12.50;34.90;;;;;;10406801;28;20312;-69
2021/05/16 03:34:49;;;;;;;0.67;0.60;;;12.50;34.80;;;;;;10406595;28;20321;-69
2021/05/16 03:39:52;;;;;;;1.30;0.70;;;12.40;34.80;;;;;;10413325;28;20658;-69
2021/05/16 03:44:55;;;;;;;0.80;0.80;;;12.40;35.10;;;;;;10413810;28;20333;-69
2021/05/16 03:49:58;;;;;;;1.77;0.87;;;12.40;35.10;;;;;;10413987;28;20291;-69
2021/05/16 03:55:02;;;;;;;0.80;0.80;;;12.40;35.10;;;;;;10413436;28;20949;-69
2021/05/16 04:00:07;;;;;;;0.80;0.63;;;12.30;35.30;;;;;;10413530;28;20257;-69
2021/05/16 04:05:10;;;;;;;1.53;0.70;;;12.30;35.60;;;;;;10413038;28;20229;-70
2021/05/16 04:10:14;;;;;;;0.70;0.70;;;12.30;35.70;;;;;;10413485;28;20249;-70
2021/05/16 04:15:16;;;;;;;1.10;0.80;;;12.30;35.90;;;;;;10412954;28;20272;-69
2021/05/16 04:20:19;;;;;;;0.70;0.70;;;12.30;35.90;;;;;;10412790;28;20316;-69
2021/05/16 04:25:23;;;;;;;1.00;0.90;;;12.30;35.90;;;;;;10412630;28;20253;-70
2021/05/16 04:30:25;;;;;;;2.07;1.00;;;12.20;36.30;;;;;;10412109;28;20246;-69
2021/05/16 04:35:28;;;;;;;3.07;1.00;;;12.20;36.20;;;;;;10412104;28;20300;-70
2021/05/16 04:40:32;;;;;;;1.03;0.90;;;12.20;36.30;;;;;;10411836;28;20769;-69
2021/05/16 04:45:35;;;;;;;0.80;0.80;;;12.20;36.60;;;;;;10412026;28;20632;-70
2021/05/16 04:50:38;;;;;;;1.20;0.90;;;12.30;36.60;;;;;;10410203;28;20237;-70
2021/05/16 04:55:41;;;;;;;1.10;1.00;;;12.30;36.70;;;;;;10410567;28;20957;-70
2021/05/16 05:00:44;;;;;;;1.13;0.97;;;12.40;36.90;;;;;;10410648;28;20252;-70
2021/05/16 05:05:47;;;;;;;1.23;0.83;;;12.50;36.70;;;;;;10410602;28;20260;-69
2021/05/16 05:10:50;;;;;;;0.90;0.70;;;12.50;36.90;;;;;;10410460;28;20349;-70
2021/05/16 05:15:53;;;;;;;1.20;0.73;;;12.60;37.30;;;;;;10410248;28;20249;-69
2021/05/16 05:20:56;;;;;;;1.43;0.80;;;12.70;37.00;;;;;;10409972;28;20233;-69
2021/05/16 05:25:59;;;;;;;0.93;0.70;;;12.60;36.80;;;;;;10408183;28;20256;-69
2021/05/16 05:31:03;;;;;;;2.83;0.80;;;12.60;37.10;;;;;;10405008;28;20284;-70
2021/05/16 05:36:07;;;;;;;1.67;1.03;;;12.60;37.10;;;;;;10402784;28;20244;-70
2021/05/16 05:41:10;;;;;;;1.40;0.90;;;12.60;37.30;;;;;;10403120;28;20240;-70
2021/05/16 05:46:13;;;;;;;1.40;1.00;;;12.70;37.70;;;;;;10408722;28;20272;-70
2021/05/16 05:51:16;;;;;;;1.30;0.80;;;12.70;37.50;;;;;;10409001;28;20249;-69
2021/05/16 05:56:21;;;;;;;1.00;0.90;;;12.80;37.50;;;;;;10408930;28;20308;-70
2021/05/16 06:01:24;;;;;;;1.10;0.80;;;12.90;38.20;;;;;;10408542;28;20259;-70
2021/05/16 06:06:26;;;;;;;1.20;0.70;;;13.00;37.70;;;;;;10408443;28;20718;-70
2021/05/16 06:11:30;;;;;;;0.83;0.80;;;13.10;37.90;;;;;;10408576;28;20308;-70
2021/05/16 06:16:33;;;;;;;1.37;1.00;;;13.20;38.10;;;;;;10408176;28;20308;-70
2021/05/16 06:21:36;;;;;;;1.53;1.00;;;13.30;38.10;;;;;;10408640;28;20603;-69
2021/05/16 06:26:42;;;;;;;0.77;0.77;;;13.30;38.20;;;;;;10408065;28;20316;-69
2021/05/16 06:31:45;;;;;;;2.50;0.60;;;13.50;38.90;;;;;;10407866;28;20229;-70
2021/05/16 06:36:47;;;;;;;0.90;0.80;;;13.60;38.30;;;;;;10407848;28;20226;-69
2021/05/16 06:41:51;;;;;;;1.10;0.80;;;13.70;38.80;;;;;;10407748;28;20776;-69
2021/05/16 06:46:54;;;;;;;1.27;0.87;;;13.80;38.30;;;;;;10409143;28;20263;-69
2021/05/16 06:51:57;;;;;;;1.00;0.90;;;13.90;38.10;;;;;;10407575;28;20253;-69
2021/05/16 06:57:01;;;;;;;1.57;0.80;;;14.00;37.90;;;;;;10407519;28;20253;-69
2021/05/16 07:02:04;;;;;;;1.50;0.77;;;14.00;38.40;;;;;;10407005;28;20236;-70
2021/05/16 07:07:08;;;;;;;1.53;0.90;;;14.10;38.00;;;;;;10407417;28;20222;-69
2021/05/16 07:12:12;;;;;;;1.07;0.83;;;14.20;38.10;;;;;;10409903;28;20229;-69
2021/05/16 07:17:15;;;;;;;1.27;0.80;;;14.20;38.20;;;;;;10414681;28;20312;-69
2021/05/16 07:22:17;;;;;;;1.70;1.00;;;14.30;38.20;;;;;;10415185;28;20296;-69
2021/05/16 07:27:21;;;;;;;1.47;0.73;;;14.40;38.00;;;;;;10414898;28;20313;-69
2021/05/16 07:32:24;;;;;;;1.60;0.90;;;14.50;38.50;;;;;;10414689;28;20233;-69
2021/05/16 07:37:27;;;;;;;1.50;0.80;;;14.60;38.30;;;;;;10414754;28;20792;-69
2021/05/16 07:42:31;;;;;;;1.93;0.97;;;14.80;38.20;;;;;;10414234;28;20332;-69
2021/05/16 07:47:44;;;;;;;1.80;1.07;;;14.90;38.00;;;;;;10414266;28;20659;-69
2021/05/16 07:52:47;;;;;;;2.77;1.10;;;15.10;38.10;;;;;;10413974;28;20283;-69
2021/05/16 07:57:51;;;;;;;1.43;0.90;;;15.20;38.10;;;;;;10413748;28;20260;-68
2021/05/16 08:02:53;;;;;;;1.80;0.80;;;15.30;38.00;;;;;;10413187;28;20336;-69
2021/05/16 08:07:56;;;;;;;1.03;0.90;;;15.40;37.80;;;;;;10412630;28;20254;-70
2021/05/16 08:12:59;;;;;;;0.90;0.90;;;15.60;37.60;;;;;;10412845;28;20317;-69
2021/05/16 08:18:04;;;;;;;0.90;0.80;;;15.70;37.80;;;;;;10405021;28;20317;-70
2021/05/16 08:23:07;;;;;;;0.73;0.70;;;15.80;37.60;;;;;;10371470;28;20672;-70
2021/05/16 08:28:11;;;;;;;1.77;1.00;;;15.90;37.20;;;;;;10371217;28;20246;-70
2021/05/16 08:33:13;;;;;;;1.57;1.07;;;16.00;37.30;;;;;;10370986;28;20261;-70
2021/05/16 08:38:16;;;;;;;1.70;1.00;;;16.10;37.30;;;;;;10371234;28;20321;-69
2021/05/16 08:43:20;;;;;;;1.60;0.80;;;16.10;37.20;;;;;;10368622;28;20257;-69
2021/05/16 08:48:29;;;;;;;1.03;0.90;;;16.20;37.20;;;;;;10377158;28;20226;-70
2021/05/16 08:53:34;;;;;;;0.93;0.90;;;16.30;37.30;;;;;;10411527;28;20315;-69
2021/05/16 08:58:38;;;;;;;0.80;0.70;;;16.40;37.30;;;;;;10410592;28;20660;-70
2021/05/16 09:03:40;;;;;;;2.20;1.00;;;16.50;36.80;;;;;;10410857;28;20260;-70
2021/05/16 09:08:44;;;;;;;2.20;0.90;;;16.60;36.90;;;;;;10410236;28;20279;-70
2021/05/16 09:13:52;;;;;;;1.00;0.70;;;16.60;36.90;;;;;;10410614;28;20229;-70
2021/05/16 09:18:56;;;;;;;3.60;1.60;;;16.70;37.20;;;;;;10410032;28;20316;-70
2021/05/16 09:24:12;;;;;;;2.20;1.77;;;16.90;37.40;;;;;;10409887;28;20233;-70
2021/05/16 09:29:21;;;;;;;2.20;1.00;;;17.10;37.30;;;;;;10409805;28;20249;-70
2021/05/16 09:34:23;;;;;;;0.90;0.77;;;17.40;36.60;;;;;;10408723;28;20251;-70
2021/05/16 09:39:28;;;;;;;1.73;0.90;;;17.60;37.20;;;;;;10409537;28;20245;-70
2021/05/16 09:44:39;;;;;;;1.00;0.90;;;17.90;35.90;;;;;;10408760;28;20680;-70
2021/05/16 09:49:43;;;;;;;1.03;0.80;;;18.00;35.10;;;;;;10409222;28;20260;-70
2021/05/16 09:54:53;;;;;;;1.13;0.80;;;18.20;34.90;;;;;;10408667;28;20309;-70
2021/05/16 09:59:57;;;;;;;1.63;0.90;;;18.40;33.80;;;;;;10408663;28;20253;-70
2021/05/16 10:05:01;;;;;;;1.20;0.80;;;18.40;34.10;;;;;;10407821;28;20639;-70
2021/05/16 10:10:07;;;;;;;0.93;0.77;;;18.50;35.20;;;;;;10383351;28;20312;-70
2021/05/16 10:15:14;;;;;;;1.27;0.70;;;18.50;34.80;;;;;;10384549;28;20272;-70
2021/05/16 10:20:20;;;;;;;1.07;0.77;;;18.50;35.20;;;;;;10389399;28;20317;-70
2021/05/16 10:25:39;;;;;;;0.80;0.77;;;18.50;35.20;;;;;;10386668;28;20312;-70
2021/05/16 10:31:00;;;;;;;2.10;0.70;;;18.50;35.40;;;;;;10386240;28;20749;-70
2021/05/16 10:36:03;;;;;;;1.40;0.90;;;18.60;35.30;;;;;;10383211;28;20305;-70
2021/05/16 10:41:15;;;;;;;2.63;0.80;;;18.60;34.80;;;;;;10390507;28;20257;-70
2021/05/16 10:46:43;;;;;;;1.47;0.83;;;18.70;35.30;;;;;;10384338;28;20946;-69
2021/05/16 10:51:46;;;;;;;1.10;0.90;;;18.70;33.70;;;;;;10399486;28;20367;-71
2021/05/16 10:57:10;;;;;;;0.90;0.70;;;18.70;34.30;;;;;;10407350;28;20249;-70
2021/05/16 11:02:52;;;;;;;2.00;0.87;;;18.80;33.20;;;;;;10405548;28;20748;-71
2021/05/16 11:07:55;;;;;;;1.10;0.80;;;18.70;32.30;;;;;;10406453;28;20252;-70
2021/05/16 11:13:07;;;;;;;2.10;0.90;;;18.60;32.70;;;;;;10401937;28;20272;-70
2021/05/16 11:18:11;;;;;;;3.97;1.20;;;18.60;34.00;;;;;;10403479;28;20260;-70
2021/05/16 11:23:21;;;;;;;1.33;0.90;;;18.80;34.70;;;;;;10404040;28;20234;-70
2021/05/16 11:28:25;;;;;;;1.63;0.80;;;19.00;32.90;;;;;;10406940;28;20225;-70
2021/05/16 11:33:30;;;;;;;1.67;0.90;;;19.20;34.20;;;;;;10406802;28;20942;-70
2021/05/16 11:38:35;;;;;;;2.77;0.87;;;19.40;33.50;;;;;;10406274;28;20703;-70
2021/05/16 11:43:42;;;;;;;1.30;0.70;;;19.60;33.10;;;;;;10406283;28;20284;-69
2021/05/16 11:48:46;;;;;;;1.73;0.93;;;19.80;32.70;;;;;;10405035;28;20656;-70
2021/05/16 11:53:55;;;;;;;1.07;0.73;;;19.90;31.40;;;;;;10406292;28;20295;-70
2021/05/16 11:58:59;;;;;;;0.90;0.80;;;20.00;31.90;;;;;;10409543;28;20666;-69
2021/05/16 12:04:05;;;;;;;1.10;1.00;;;20.10;31.00;;;;;;10412407;28;20736;-70
2021/05/16 12:09:10;;;;;;;1.57;0.87;;;20.20;32.00;;;;;;10413125;28;20257;-70
2021/05/16 12:14:15;;;;;;;2.20;1.00;;;20.10;31.50;;;;;;10412483;28;20294;-70
2021/05/16 12:19:20;;;;;;;2.10;0.93;;;19.70;31.20;;;;;;10412118;28;20307;-71
2021/05/16 12:24:25;;;;;;;0.97;0.63;;;19.40;31.90;;;;;;10409408;28;20602;-71
2021/05/16 12:29:28;;;;;;;1.20;0.80;;;19.00;32.90;;;;;;10411126;28;20300;-70
2021/05/16 12:34:32;;;;;;;1.33;0.80;;;18.80;32.90;;;;;;10406802;28;20320;-70
2021/05/16 12:39:36;;;;;;;1.33;0.60;;;18.70;33.20;;;;;;10410173;28;20791;-72
2021/05/16 12:44:39;;;;;;;0.77;0.70;;;18.70;33.30;;;;;;10411097;28;20221;-70
2021/05/16 12:49:43;;;;;;;0.93;0.70;;;18.70;33.30;;;;;;10409546;28;20746;-71
2021/05/16 12:54:46;;;;;;;1.23;0.70;;;18.80;33.70;;;;;;10411058;28;20796;-71
2021/05/16 12:59:48;;;;;;;0.63;0.60;;;19.00;32.60;;;;;;10410527;28;20268;-69
2021/05/16 13:04:53;;;;;;;0.60;0.60;;;19.20;32.20;;;;;;10407002;28;20239;-69
2021/05/16 13:09:56;;;;;;;1.00;0.70;;;19.40;32.00;;;;;;10407553;28;20784;-70
2021/05/16 13:14:59;;;;;;;0.87;0.80;;;19.50;31.40;;;;;;10410001;28;20254;-70
2021/05/16 13:20:03;;;;;;;0.90;0.80;;;19.60;31.10;;;;;;10409175;28;20312;-70
2021/05/16 13:25:07;;;;;;;1.53;0.80;;;19.70;30.60;;;;;;10408911;28;20260;-70
2021/05/16 13:30:12;;;;;;;0.80;0.70;;;19.80;30.20;;;;;;10406075;28;20316;-70
2021/05/16 13:35:16;;;;;;;0.87;0.70;;;19.80;30.00;;;;;;10405191;28;20309;-70
2021/05/16 13:40:19;;;;;;;0.90;0.70;;;19.90;30.10;;;;;;10405526;28;20233;-69
2021/05/16 13:45:22;;;;;;;1.70;1.00;;;19.90;30.60;;;;;;10407216;28;20268;-70
2021/05/16 13:50:26;;;;;;;1.13;0.90;;;20.00;30.60;;;;;;10408134;28;20221;-70
2021/05/16 13:55:28;;;;;;;1.17;0.90;;;20.00;30.00;;;;;;10408777;28;20805;-70
2021/05/16 14:00:31;;;;;;;2.00;1.10;;;19.90;30.00;;;;;;10408655;28;20312;-70
2021/05/16 14:05:35;;;;;;;1.07;0.90;;;19.80;30.00;;;;;;10408630;28;20229;-71
2021/05/16 14:10:38;;;;;;;2.30;1.13;;;19.70;29.70;;;;;;10408420;28;20236;-70
2021/05/16 14:15:41;;;;;;;1.73;0.90;;;19.70;29.90;;;;;;10407930;28;20233;-70
2021/05/16 14:20:45;;;;;;;1.73;1.20;;;19.70;30.00;;;;;;10407804;28;20230;-70
2021/05/16 14:25:48;;;;;;;0.80;0.77;;;19.80;30.00;;;;;;10407880;28;20308;-70
2021/05/16 14:30:52;;;;;;;0.93;0.70;;;19.80;29.80;;;;;;10408108;28;20308;-70
2021/05/16 14:35:56;;;;;;;1.10;0.90;;;19.90;29.60;;;;;;10407321;28;20888;-71
2021/05/16 14:41:00;;;;;;;0.70;0.70;;;19.90;29.60;;;;;;10407356;28;20244;-70
2021/05/16 14:46:03;;;;;;;1.50;0.83;;;19.90;30.10;;;;;;10405971;28;20229;-70
2021/05/16 14:51:09;;;;;;;1.13;0.90;;;19.90;30.10;;;;;;10407189;28;20253;-71
2021/05/16 14:56:12;;;;;;;1.73;0.97;;;19.90;29.90;;;;;;10406985;28;20859;-71
2021/05/16 15:01:15;;;;;;;1.10;0.87;;;19.90;30.00;;;;;;10407001;28;20253;-71
2021/05/16 15:06:23;;;;;;;1.17;1.00;;;19.90;30.00;;;;;;10407216;28;20261;-71
2021/05/16 15:11:26;;;;;;;3.03;1.00;;;19.90;29.60;;;;;;10405935;28;20667;-71
2021/05/16 15:16:29;;;;;;;2.60;1.50;;;19.90;30.00;;;;;;10403427;28;20439;-71
2021/05/16 15:21:32;;;;;;;1.37;1.00;;;19.80;30.10;;;;;;10399468;28;20264;-71
2021/05/16 15:26:35;;;;;;;2.77;1.80;;;19.80;29.80;;;;;;10403463;28;20226;-68
2021/05/16 15:31:38;;;;;;;1.97;1.00;;;19.90;30.00;;;;;;10402747;28;20248;-71
2021/05/16 15:36:41;;;;;;;1.73;1.30;;;19.90;30.50;;;;;;10372987;28;20309;-71
2021/05/16 15:41:44;;;;;;;1.67;0.90;;;19.90;30.30;;;;;;10372754;28;20257;-71
2021/05/16 15:46:47;;;;;;;3.97;1.50;;;19.90;30.50;;;;;;10370778;28;20284;-71
2021/05/16 15:51:51;;;;;;;2.67;1.47;;;19.90;30.60;;;;;;10371130;28;20308;-71
2021/05/16 15:56:54;;;;;;;3.57;1.30;;;19.90;30.50;;;;;;10371743;28;20237;-71
2021/05/16 16:01:56;;;;;;;5.30;3.10;;;19.90;30.80;;;;;;10371638;28;20238;-71
2021/05/16 16:07:00;;;;;;;3.40;2.70;;;19.90;30.80;;;;;;10372616;28;20669;-70
2021/05/16 16:12:04;;;;;;;5.83;4.03;;;19.90;30.80;;;;;;10370421;28;20234;-71
2021/05/16 16:17:07;;;;;;;2.23;1.60;;;19.80;30.50;;;;;;10370105;28;20810;-71
2021/05/16 16:22:10;;;;;;;2.13;1.83;;;19.70;30.50;;;;;;10370733;28;20321;-71
2021/05/16 16:27:29;;;;;;;1.87;1.20;;;19.60;30.00;;;;;;10370447;28;20228;-70
2021/05/16 16:32:32;;;;;;;1.63;1.10;;;19.50;29.70;;;;;;10368770;28;20647;-70
2021/05/16 16:37:35;;;;;;;2.33;1.10;;;19.40;29.50;;;;;;10368970;28;20685;-70
2021/05/16 16:42:38;;;;;;;1.60;1.00;;;19.40;29.70;;;;;;10369389;28;20309;-70
2021/05/16 16:47:41;;;;;;;1.77;1.00;;;19.30;29.50;;;;;;10370783;28;20685;-70
2021/05/16 16:52:45;;;;;;;1.33;1.20;;;19.30;29.50;;;;;;10375144;28;20266;-72
2021/05/16 16:57:48;;;;;;;0.87;0.87;;;19.20;29.40;;;;;;10400870;28;20253;-72
2021/05/16 17:02:51;;;;;;;1.37;1.10;;;19.10;29.60;;;;;;10394748;28;20319;-72
2021/05/16 17:07:55;;;;;;;0.97;0.97;;;19.00;29.30;;;;;;10401741;28;20649;-72
2021/05/16 17:12:58;;;;;;;0.90;0.80;;;18.90;29.30;;;;;;10395832;28;20265;-71
2021/05/16 17:18:00;;;;;;;1.90;1.50;;;18.80;29.30;;;;;;10395038;28;20242;-72
2021/05/16 17:23:04;;;;;;;1.90;1.80;;;18.60;29.30;;;;;;10391718;28;20312;-72
2021/05/16 17:28:07;;;;;;;1.80;1.10;;;18.50;29.30;;;;;;10395580;28;20253;-72
2021/05/16 17:33:10;;;;;;;1.20;1.10;;;18.50;29.20;;;;;;10391148;28;20228;-72
2021/05/16 17:38:14;;;;;;;1.33;1.00;;;18.40;29.30;;;;;;10397459;28;20257;-71
2021/05/16 17:43:17;;;;;;;1.47;1.37;;;18.40;29.20;;;;;;10400677;28;20319;-72
2021/05/16 17:48:20;;;;;;;3.17;2.23;;;18.40;29.30;;;;;;10390641;28;20312;-72
2021/05/16 17:53:23;;;;;;;2.33;1.80;;;18.30;29.30;;;;;;10406236;28;20234;-72
2021/05/16 17:58:26;;;;;;;1.53;1.20;;;18.20;29.40;;;;;;10397605;28;20320;-72
2021/05/16 18:03:29;;;;;;;1.20;1.10;;;18.10;29.50;;;;;;10395938;28;20249;-72
2021/05/16 18:08:33;;;;;;;1.77;1.67;;;18.00;29.40;;;;;;10394546;28;20236;-72
2021/05/16 18:13:36;;;;;;;1.80;1.70;;;17.90;29.30;;;;;;10394882;28;20226;-72
2021/05/16 18:18:39;;;;;;;0.90;0.90;;;17.80;29.60;;;;;;10407242;28;20246;-71
2021/05/16 18:23:43;;;;;;;1.17;0.70;;;17.80;29.70;;;;;;10392442;28;20313;-71
2021/05/16 18:28:47;;;;;;;0.70;0.70;;;17.70;29.50;;;;;;10403180;28;20254;-71
2021/05/16 18:33:50;;;;;;;1.30;0.90;;;17.60;29.70;;;;;;10396593;28;20229;-71
2021/05/16 18:38:54;;;;;;;0.70;0.70;;;17.50;29.70;;;;;;10407182;28;20230;-71
2021/05/16 18:43:57;;;;;;;0.80;0.80;;;17.40;29.70;;;;;;10406477;28;20604;-71
2021/05/16 18:48:59;;;;;;;0.70;0.70;;;17.30;29.80;;;;;;10387353;28;20317;-71
2021/05/16 18:54:03;;;;;;;0.77;0.77;;;17.20;30.00;;;;;;10378732;28;20264;-70
2021/05/16 18:59:06;;;;;;;0.80;0.80;;;17.10;30.30;;;;;;10406210;28;20321;-71
2021/05/16 19:04:09;;;;;;;0.70;0.60;;;17.00;30.20;;;;;;10398411;28;20238;-71
2021/05/16 19:09:13;;;;;;;1.87;0.70;;;16.90;30.10;;;;;;10398256;28;20233;-70
2021/05/16 19:14:17;;;;;;;0.80;0.80;;;16.80;30.30;;;;;;10396184;28;20261;-71
2021/05/16 19:19:20;;;;;;;1.23;0.80;;;16.70;30.40;;;;;;10392933;28;20262;-71
2021/05/16 19:24:25;;;;;;;0.70;0.70;;;16.60;30.40;;;;;;10398515;28;20683;-71
2021/05/16 19:29:28;;;;;;;1.30;0.60;;;16.60;30.60;;;;;;10400374;28;20257;-71
2021/05/16 19:34:31;;;;;;;0.70;0.63;;;16.50;30.50;;;;;;10387109;28;20312;-71
2021/05/16 19:39:36;;;;;;;1.40;0.80;;;16.40;30.80;;;;;;10396266;28;20261;-71
2021/05/16 19:44:38;;;;;;;1.37;0.60;;;16.40;31.00;;;;;;10392713;28;20229;-71
2021/05/16 19:50:03;;;;;;;0.60;0.60;;;16.30;31.80;;;;;;10403207;28;20768;-71
2021/05/16 19:55:08;;;;;;;1.43;1.10;;;16.20;31.30;;;;;;10409570;28;20266;-71
2021/05/16 20:00:14;;;;;;;1.07;0.80;;;16.20;31.50;;;;;;10399616;28;20257;-72
2021/05/16 20:05:16;;;;;;;1.43;0.60;;;16.10;31.60;;;;;;10388456;28;681845;-72
2021/05/16 20:10:20;;;;;;;0.70;0.70;;;16.00;31.50;;;;;;10412687;28;20927;-72
2021/05/16 20:15:23;;;;;;;0.60;0.60;;;15.90;31.70;;;;;;10412162;28;20662;-72
2021/05/16 20:20:26;;;;;;;0.60;0.60;;;15.90;31.70;;;;;;10404704;28;20248;-71
2021/05/16 20:25:30;;;;;;;1.60;0.70;;;15.90;31.70;;;;;;10402143;28;20249;-71
2021/05/16 20:30:33;;;;;;;1.13;0.63;;;15.90;31.80;;;;;;10399703;28;20222;-71
2021/05/16 20:35:38;;;;;;;0.67;0.67;;;15.90;31.60;;;;;;10412151;28;20260;-71
2021/05/16 20:40:44;;;;;;;0.57;0.57;;;15.90;31.70;;;;;;10411816;28;20313;-71
2021/05/16 20:45:49;;;;;;;0.80;0.80;;;15.80;32.00;;;;;;10395542;28;20304;-71
2021/05/16 20:50:53;;;;;;;0.70;0.70;;;15.80;32.10;;;;;;10404373;28;20653;-71
2021/05/16 20:55:56;;;;;;;0.60;0.60;;;15.80;32.00;;;;;;10411063;28;20313;-71
2021/05/16 21:01:02;;;;;;;0.50;0.50;;;15.80;32.10;;;;;;10387539;28;20233;-71
2021/05/16 21:06:06;;;;;;;0.60;0.60;;;15.80;31.80;;;;;;10410629;28;20225;-71
2021/05/16 21:11:09;;;;;;;0.87;0.67;;;15.70;32.00;;;;;;10389380;28;20380;-71
2021/05/16 21:16:12;;;;;;;0.60;0.57;;;15.70;32.70;;;;;;10394053;28;20237;-71
2021/05/16 21:21:15;;;;;;;1.40;0.80;;;15.70;32.40;;;;;;10388977;28;20325;-71
2021/05/16 21:26:19;;;;;;;0.90;0.90;;;15.80;32.70;;;;;;10389240;28;20268;-71
2021/05/16 21:31:22;;;;;;;2.03;0.90;;;15.80;32.80;;;;;;10374963;28;20253;-70
2021/05/16 21:36:24;;;;;;;0.83;0.83;;;15.80;32.40;;;;;;10406732;28;20256;-71
2021/05/16 21:41:28;;;;;;;0.97;0.73;;;15.80;32.30;;;;;;10381009;28;21111;-72
2021/05/16 21:46:30;;;;;;;0.80;0.80;;;15.70;32.70;;;;;;10378000;28;20313;-72
2021/05/16 21:51:33;;;;;;;1.03;0.80;;;15.70;33.40;;;;;;10383674;28;20229;-72
2021/05/16 21:56:37;;;;;;;1.03;0.90;;;15.60;32.70;;;;;;10403022;28;20249;-72
2021/05/16 22:01:40;;;;;;;0.83;0.83;;;15.60;32.60;;;;;;10393278;28;20240;-71
2021/05/16 22:06:42;;;;;;;0.80;0.80;;;15.50;32.50;;;;;;10391456;28;20694;-72
2021/05/16 22:11:46;;;;;;;1.03;0.70;;;15.50;32.50;;;;;;10405803;28;20321;-71
2021/05/16 22:16:49;;;;;;;0.70;0.60;;;15.50;33.20;;;;;;10405292;28;20324;-71
2021/05/16 22:21:52;;;;;;;0.80;0.60;;;15.40;32.70;;;;;;10403103;28;20257;-71
2021/05/16 22:26:55;;;;;;;0.70;0.70;;;15.30;33.00;;;;;;10377932;28;20232;-71
2021/05/16 22:31:58;;;;;;;0.70;0.70;;;15.30;33.60;;;;;;10377541;28;20635;-71
2021/05/16 22:37:02;;;;;;;1.70;0.80;;;15.30;33.40;;;;;;10395152;28;20226;-71
2021/05/16 22:42:07;;;;;;;0.80;0.70;;;15.30;33.50;;;;;;10404434;28;20295;-71
2021/05/16 22:47:10;;;;;;;0.60;0.60;;;15.30;33.70;;;;;;10404496;28;20579;-71
2021/05/16 22:52:13;;;;;;;0.93;0.50;;;15.20;33.30;;;;;;10390846;28;20264;-71
2021/05/16 22:57:19;;;;;;;0.60;0.60;;;15.20;33.80;;;;;;10404255;28;20237;-71
2021/05/16 23:02:21;;;;;;;0.70;0.70;;;15.20;34.10;;;;;;10403707;28;20257;-71
2021/05/16 23:07:24;;;;;;;1.57;0.80;;;15.10;33.50;;;;;;10403867;28;20255;-71
2021/05/16 23:12:28;;;;;;;0.60;0.60;;;15.10;33.60;;;;;;10376385;28;20283;-71
2021/05/16 23:17:33;;;;;;;0.50;0.50;;;15.10;33.90;;;;;;10402530;28;20650;-71
2021/05/16 23:22:36;;;;;;;0.50;0.50;;;15.00;34.00;;;;;;10395100;28;20225;-71
2021/05/16 23:27:40;;;;;;;0.53;0.50;;;14.90;34.00;;;;;;10393771;28;20744;-70
2021/05/16 23:32:43;;;;;;;0.50;0.50;;;14.80;34.30;;;;;;10398609;28;20304;-71
2021/05/16 23:37:46;;;;;;;0.70;0.57;;;14.80;34.20;;;;;;10396160;28;20245;-71
2021/05/16 23:42:50;;;;;;;0.50;0.50;;;14.80;34.40;;;;;;10393069;28;20374;-71
2021/05/16 23:47:54;;;;;;;0.50;0.50;;;14.80;34.60;;;;;;10390215;28;20273;-71
2021/05/16 23:52:57;;;;;;;0.80;0.67;;;14.70;34.40;;;;;;10402576;28;20261;-71
2021/05/16 23:58:00;;;;;;;0.67;0.67;;;14.70;34.60;;;;;;10395520;28;20340;-70
